Time;durP1;ratioP1;P1;durP2;ratioP2;P2;SDS_P1;SDS_P2;PMS_P1;PMS_P2;Temp;Humidity;BMP_temperature;BMP_pressure;BME280_temperature;BME280_humidity;BME280_pressure;Samples;Min_cycle;Max_cycle;Signal;HPM_P1;HPM_P2
2021/08/04 00:01:16;;;;;;;5.77;2.43;;;13.80;99.90;;;;;;20922775;28;20025;-77
2021/08/04 00:11:17;;;;;;;3.50;2.33;;;13.70;99.90;;;;;;20906176;28;20037;-78
2021/08/04 00:21:17;;;;;;;6.97;4.13;;;13.60;99.90;;;;;;20923222;28;20075;-77
2021/08/04 00:31:18;;;;;;;6.07;2.80;;;13.70;99.90;;;;;;20924683;28;20033;-77
2021/08/04 00:41:19;;;;;;;6.57;3.10;;;13.40;99.90;;;;;;20910410;28;20064;-77
2021/08/04 00:51:20;;;;;;;4.60;2.47;;;13.20;99.90;;;;;;20918140;28;20032;-77
2021/08/04 01:01:25;;;;;;;4.10;2.87;;;13.40;99.90;;;;;;20920034;28;20055;-76
2021/08/04 01:11:32;;;;;;;5.68;2.67;;;13.30;99.90;;;;;;20917647;28;20182;-77
2021/08/04 01:21:54;;;;;;;5.15;2.17;;;13.40;99.90;;;;;;20916442;28;20504;-77
2021/08/04 01:32:01;;;;;;;5.18;2.40;;;13.40;99.90;;;;;;20914650;28;20146;-77
2021/08/04 01:42:04;;;;;;;3.17;1.90;;;13.40;99.90;;;;;;20914475;28;20029;-78
2021/08/04 01:52:06;;;;;;;4.90;2.22;;;13.50;99.90;;;;;;20928358;28;20440;-77
2021/08/04 02:02:14;;;;;;;9.30;2.97;;;13.50;99.90;;;;;;20910714;28;20032;-76
2021/08/04 02:12:15;;;;;;;22.13;5.38;;;13.50;99.90;;;;;;20917218;28;20025;-77
2021/08/04 02:22:39;;;;;;;9.57;4.70;;;13.40;99.90;;;;;;20932674;28;20039;-76
2021/08/04 02:32:41;;;;;;;8.35;4.05;;;13.30;99.90;;;;;;20830262;28;20037;-77
2021/08/04 02:42:44;;;;;;;7.20;4.10;;;13.30;99.90;;;;;;20826278;28;20030;-77
2021/08/04 02:52:47;;;;;;;6.82;4.00;;;13.20;99.90;;;;;;20829636;28;20087;-77
2021/08/04 03:02:48;;;;;;;4.05;2.47;;;13.30;99.90;;;;;;20827224;28;20116;-76
2021/08/04 03:12:49;;;;;;;3.07;2.03;;;13.40;99.90;;;;;;20825429;28;20187;-77
2021/08/04 03:22:50;;;;;;;6.67;4.00;;;13.40;99.90;;;;;;20880839;28;20037;-77
2021/08/04 03:32:50;;;;;;;8.93;5.20;;;13.30;99.90;;;;;;20918228;28;20509;-76
2021/08/04 03:42:51;;;;;;;12.77;6.70;;;13.30;99.90;;;;;;20912345;28;20032;-77
2021/08/04 03:52:52;;;;;;;11.13;5.37;;;13.20;99.90;;;;;;20913443;28;20060;-77
2021/08/04 04:02:53;;;;;;;8.20;3.70;;;13.20;99.90;;;;;;20892862;28;20498;-77
2021/08/04 04:12:54;;;;;;;8.23;4.10;;;13.40;99.90;;;;;;20922020;28;20627;-77
2021/08/04 04:22:55;;;;;;;7.63;4.53;;;13.30;99.90;;;;;;20936714;28;20029;-77
2021/08/04 04:32:55;;;;;;;11.00;5.20;;;13.40;99.90;;;;;;20892956;28;20029;-77
2021/08/04 04:42:56;;;;;;;7.03;4.73;;;13.20;99.90;;;;;;20865500;28;20033;-78
2021/08/04 04:52:57;;;;;;;9.27;5.70;;;13.20;99.90;;;;;;20864326;28;20039;-77
2021/08/04 05:02:58;;;;;;;12.83;6.67;;;13.20;99.90;;;;;;20845756;28;20059;-78
2021/08/04 05:12:59;;;;;;;15.27;7.10;;;13.30;99.90;;;;;;20861614;28;20056;-78
2021/08/04 05:23:00;;;;;;;13.67;8.43;;;13.40;99.90;;;;;;20859563;28;20100;-77
2021/08/04 05:33:01;;;;;;;14.07;7.80;;;13.40;99.90;;;;;;20858888;28;20028;-77
2021/08/04 05:43:02;;;;;;;12.47;7.17;;;13.60;99.90;;;;;;20856327;28;20391;-78
2021/08/04 05:53:03;;;;;;;10.10;6.07;;;13.90;99.90;;;;;;20862535;28;20082;-79
2021/08/04 06:03:04;;;;;;;12.43;6.10;;;14.30;99.90;;;;;;20846237;28;20037;-79
2021/08/04 06:13:05;;;;;;;10.17;6.13;;;14.60;99.90;;;;;;20847259;28;20064;-77
2021/08/04 06:23:05;;;;;;;11.03;6.13;;;14.80;99.90;;;;;;20844525;28;20037;-79
2021/08/04 06:33:06;;;;;;;11.73;6.37;;;14.70;99.90;;;;;;20824793;28;20108;-80
2021/08/04 06:43:07;;;;;;;12.00;5.53;;;14.60;99.90;;;;;;20857305;28;20026;-80
2021/08/04 06:53:08;;;;;;;10.43;5.63;;;15.00;99.90;;;;;;20852251;28;20446;-78
2021/08/04 07:03:09;;;;;;;10.27;4.60;;;15.60;99.90;;;;;;20833226;28;20025;-79
2021/08/04 07:13:10;;;;;;;9.67;5.00;;;15.70;99.90;;;;;;20832622;28;20537;-81
2021/08/04 07:23:10;;;;;;;9.77;4.40;;;16.10;99.90;;;;;;20834000;28;20029;-80
2021/08/04 07:33:12;;;;;;;7.37;4.37;;;16.30;99.90;;;;;;20834444;28;20093;-79
2021/08/04 07:43:12;;;;;;;9.90;5.07;;;16.20;99.90;;;;;;20851076;28;20033;-81
2021/08/04 07:53:13;;;;;;;7.47;4.23;;;16.00;99.90;;;;;;20829796;28;20041;-80
2021/08/04 08:03:14;;;;;;;7.57;3.47;;;16.20;99.90;;;;;;20848366;28;20056;-78
2021/08/04 08:13:15;;;;;;;6.53;3.67;;;16.40;99.90;;;;;;20828825;28;20026;-78
2021/08/04 08:23:16;;;;;;;4.73;3.10;;;16.30;99.90;;;;;;20827967;28;20033;-80
2021/08/04 08:33:17;;;;;;;6.17;3.17;;;16.70;99.90;;;;;;20840987;28;20116;-80
2021/08/04 08:43:18;;;;;;;8.83;4.43;;;17.10;99.90;;;;;;20827062;28;20025;-78
2021/08/04 08:53:21;;;;;;;5.13;2.93;;;16.90;99.90;;;;;;20829702;28;20037;-77
2021/08/04 09:03:22;;;;;;;6.47;2.80;;;16.90;99.90;;;;;;20843610;28;20109;-79
2021/08/04 09:13:31;;;;;;;10.10;3.20;;;17.00;99.90;;;;;;20848311;28;20038;-79
2021/08/04 09:23:40;;;;;;;4.75;2.75;;;17.40;99.90;;;;;;20852023;28;20036;-79
2021/08/04 09:33:41;;;;;;;17.15;7.28;;;17.80;99.90;;;;;;20849830;28;20034;-78
2021/08/04 09:43:48;;;;;;;5.50;2.90;;;17.80;99.90;;;;;;20841768;28;20033;-77
2021/08/04 09:54:08;;;;;;;5.15;3.00;;;17.50;99.90;;;;;;20855560;28;20088;-77
2021/08/04 10:04:12;;;;;;;5.50;3.10;;;17.40;99.90;;;;;;20846460;28;20037;-77
2021/08/04 10:14:19;;;;;;;6.90;3.05;;;17.20;99.90;;;;;;20839554;28;20064;-78
2021/08/04 10:24:20;;;;;;;4.95;2.90;;;17.10;99.90;;;;;;20843608;28;20053;-77
2021/08/04 10:34:25;;;;;;;6.77;2.37;;;17.20;99.90;;;;;;20851927;28;20038;-78
2021/08/04 10:44:26;;;;;;;3.85;2.60;;;17.70;99.90;;;;;;20837452;28;20284;-78
2021/08/04 10:54:30;;;;;;;7.33;3.17;;;17.90;99.90;;;;;;20824207;28;20041;-77
2021/08/04 11:04:33;;;;;;;3.42;2.58;;;18.00;99.90;;;;;;20855235;28;20030;-79
2021/08/04 11:14:46;;;;;;;4.18;2.70;;;18.00;99.90;;;;;;20854645;28;20029;-78
2021/08/04 11:25:12;;;;;;;3.83;2.88;;;18.10;99.90;;;;;;20830985;28;20088;-77
2021/08/04 11:35:19;;;;;;;4.80;3.00;;;17.80;99.90;;;;;;20837884;28;20045;-78
2021/08/04 11:45:19;;;;;;;6.15;3.40;;;17.60;99.90;;;;;;20853170;28;20091;-79
2021/08/04 11:55:24;;;;;;;5.57;2.93;;;17.50;99.90;;;;;;20833707;28;20030;-79
2021/08/04 12:05:25;;;;;;;5.03;2.97;;;17.50;99.90;;;;;;20831864;28;20029;-80
2021/08/04 12:15:28;;;;;;;6.93;3.33;;;17.50;99.90;;;;;;20830709;28;20043;-80
2021/08/04 12:25:30;;;;;;;5.82;2.78;;;17.20;99.90;;;;;;20829506;28;20037;-79
2021/08/04 12:35:46;;;;;;;4.82;2.83;;;17.30;99.90;;;;;;20836127;28;20033;-78
2021/08/04 12:45:52;;;;;;;5.22;2.50;;;17.60;99.90;;;;;;20846829;28;20064;-79
2021/08/04 12:56:08;;;;;;;7.30;3.25;;;17.60;99.90;;;;;;20865345;28;20163;-79
2021/08/04 13:06:09;;;;;;;6.10;2.65;;;17.70;99.90;;;;;;20828845;28;20151;-79
2021/08/04 13:16:13;;;;;;;5.40;3.30;;;17.70;99.90;;;;;;20841880;28;20038;-79
2021/08/04 13:26:18;;;;;;;6.82;3.92;;;17.70;99.90;;;;;;20831197;28;20025;-78
2021/08/04 13:36:20;;;;;;;12.93;5.90;;;18.00;99.90;;;;;;20864129;28;20061;-79
2021/08/04 13:46:23;;;;;;;;;;;18.00;99.90;;;;;;20857951;28;20029;-77
2021/08/04 13:56:25;;;;;;;16.77;5.75;;;18.10;99.90;;;;;;20916439;28;19916;-78
2021/08/04 14:06:26;;;;;;;34.33;18.57;;;18.30;99.90;;;;;;20925874;28;20029;-79
2021/08/04 14:16:29;;;;;;;18.13;8.55;;;18.40;99.90;;;;;;20908580;28;20029;-78
2021/08/04 14:26:30;;;;;;;5.45;3.83;;;18.50;99.90;;;;;;20894803;28;20037;-77
2021/08/04 14:36:31;;;;;;;10.50;4.83;;;18.20;99.90;;;;;;20838718;28;20033;-79
2021/08/04 14:46:33;;;;;;;6.97;4.03;;;18.00;99.90;;;;;;20821320;28;20076;-79
2021/08/04 14:56:34;;;;;;;5.25;3.42;;;17.50;99.90;;;;;;20831047;28;20025;-79
2021/08/04 15:06:36;;;;;;;6.53;3.60;;;17.60;99.90;;;;;;20832655;28;20099;-78
2021/08/04 15:16:36;;;;;;;;;;;17.50;99.90;;;;;;20815756;28;20037;-79
2021/08/04 15:26:39;;;;;;;5.80;3.73;;;17.40;99.90;;;;;;20832925;28;19913;-78
2021/08/04 15:36:41;;;;;;;5.10;3.00;;;17.20;99.90;;;;;;20834130;28;20307;-79
2021/08/04 15:46:45;;;;;;;5.43;3.65;;;17.20;99.90;;;;;;20874299;28;20037;-78
2021/08/04 15:56:45;;;;;;;6.20;3.38;;;17.10;99.90;;;;;;20886464;28;20064;-78
2021/08/04 16:06:46;;;;;;;4.70;3.20;;;17.10;99.90;;;;;;20809833;28;20159;-79
2021/08/04 16:16:47;;;;;;;9.30;3.83;;;17.10;99.90;;;;;;20868046;28;20058;-78
2021/08/04 16:26:49;;;;;;;10.53;4.00;;;17.10;99.90;;;;;;20807184;28;20033;-78
2021/08/04 16:36:50;;;;;;;6.75;4.07;;;17.10;99.90;;;;;;20815860;28;20041;-80
2021/08/04 16:46:51;;;;;;;4.27;2.83;;;17.00;99.90;;;;;;20793258;28;20095;-79
2021/08/04 16:56:53;;;;;;;4.80;3.13;;;17.00;99.90;;;;;;20741940;28;20080;-77
2021/08/04 17:06:54;;;;;;;3.63;2.38;;;17.10;99.90;;;;;;20724137;28;20038;-79
2021/08/04 17:16:55;;;;;;;3.10;2.50;;;17.20;99.90;;;;;;20722652;28;20522;-78
2021/08/04 17:26:56;;;;;;;3.33;2.63;;;17.20;99.90;;;;;;20751172;28;20038;-79
2021/08/04 17:36:58;;;;;;;3.80;2.73;;;16.90;99.90;;;;;;20756515;28;20557;-78
2021/08/04 17:46:59;;;;;;;4.05;2.72;;;16.90;99.90;;;;;;20751271;28;20053;-77
2021/08/04 17:57:00;;;;;;;5.93;2.53;;;16.90;99.90;;;;;;20734248;28;20037;-78
2021/08/04 18:07:00;;;;;;;7.20;3.07;;;16.70;99.90;;;;;;20752215;28;20490;-77
2021/08/04 18:17:01;;;;;;;7.57;3.50;;;16.80;99.90;;;;;;20735990;28;20832;-78
2021/08/04 18:27:02;;;;;;;3.37;2.57;;;16.70;99.90;;;;;;20766705;28;20033;-79
2021/08/04 18:37:04;;;;;;;12.73;3.50;;;16.60;99.90;;;;;;20810245;28;20395;-78
2021/08/04 18:47:05;;;;;;;5.07;2.87;;;16.50;99.90;;;;;;20827072;28;20462;-78
2021/08/04 18:57:06;;;;;;;5.50;3.17;;;16.30;99.90;;;;;;20824685;28;20044;-78
2021/08/04 19:07:07;;;;;;;8.63;3.00;;;16.10;99.90;;;;;;20808764;28;20119;-81
2021/08/04 19:17:08;;;;;;;11.20;3.20;;;16.00;99.90;;;;;;20810059;28;20041;-77
2021/08/04 19:27:09;;;;;;;6.53;3.70;;;15.90;99.90;;;;;;20805013;28;20449;-77
2021/08/04 19:37:10;;;;;;;5.93;3.10;;;15.70;99.90;;;;;;20822391;28;20509;-78
2021/08/04 19:47:11;;;;;;;6.30;3.73;;;15.70;99.90;;;;;;20823745;28;20034;-79
2021/08/04 19:57:11;;;;;;;7.37;4.00;;;15.70;99.90;;;;;;20828508;28;20047;-78
2021/08/04 20:07:12;;;;;;;6.43;3.90;;;15.70;99.90;;;;;;20823674;28;20402;-78
2021/08/04 20:17:15;;;;;;;9.80;4.40;;;15.50;99.90;;;;;;20818473;28;20054;-78
2021/08/04 20:27:17;;;;;;;8.30;4.40;;;15.30;99.90;;;;;;20802267;28;20038;-80
2021/08/04 20:37:18;;;;;;;9.23;5.05;;;15.20;99.90;;;;;;20808137;28;20292;-79
2021/08/04 20:47:19;;;;;;;8.27;6.03;;;15.20;99.90;;;;;;20827186;28;20037;-78
2021/08/04 20:57:22;;;;;;;7.70;5.00;;;15.10;99.90;;;;;;20812552;28;20033;-78
2021/08/04 21:07:25;;;;;;;10.98;5.53;;;15.10;99.90;;;;;;20830158;28;20029;-77
2021/08/04 21:17:27;;;;;;;12.52;6.28;;;15.00;99.90;;;;;;20806748;28;20410;-79
2021/08/04 21:27:28;;;;;;;13.47;7.17;;;15.10;99.90;;;;;;20848751;28;20029;-76
2021/08/04 21:37:34;;;;;;;;;;;14.90;99.90;;;;;;20826437;28;20057;-78
2021/08/04 21:47:39;;;;;;;18.42;8.50;;;14.90;99.90;;;;;;20853868;28;19909;-79
2021/08/04 21:57:42;;;;;;;15.52;8.10;;;14.90;99.90;;;;;;20842805;28;20026;-78
2021/08/04 22:07:47;;;;;;;11.75;6.68;;;14.90;99.90;;;;;;20839380;28;20042;-78
2021/08/04 22:17:49;;;;;;;13.00;6.63;;;14.90;99.90;;;;;;20842007;28;20104;-78
2021/08/04 22:27:49;;;;;;;11.90;7.13;;;14.90;99.90;;;;;;20838784;28;20072;-77
2021/08/04 22:37:58;;;;;;;12.87;8.43;;;14.80;99.90;;;;;;20835654;28;20033;-78
2021/08/04 22:48:20;;;;;;;13.32;8.63;;;14.70;99.90;;;;;;20835061;28;20081;-77
2021/08/04 22:58:21;;;;;;;17.92;9.52;;;14.60;99.90;;;;;;20852718;28;20033;-78
2021/08/04 23:08:22;;;;;;;16.20;9.83;;;14.60;99.90;;;;;;20852905;28;20060;-78
2021/08/04 23:18:23;;;;;;;15.80;9.30;;;14.60;99.90;;;;;;20850626;28;20025;-78
2021/08/04 23:28:24;;;;;;;20.17;10.80;;;14.60;99.90;;;;;;20830482;28;20032;-78
2021/08/04 23:38:25;;;;;;;14.23;8.67;;;14.60;99.90;;;;;;20846714;28;20067;-76
2021/08/04 23:48:26;;;;;;;18.73;9.00;;;14.60;99.90;;;;;;20846814;28;20040;-79
2021/08/04 23:58:27;;;;;;;20.50;10.70;;;14.60;99.90;;;;;;20829158;28;20033;-78
